Terminal Aerodrome Forecast
Issued by NWS

Home | Current Version | Previous Version | Text Only | Print | Product List | Glossary On
Versions: 1 2 3 4 5 6 7 8 9 10 11 12 13 14 15 16
000
FTUS46 KSTO 291100 RRA
TAFSMF
TAF
KSMF 291141Z 2912/3012 VRB03KT 6SM BR SCT250
     FM291300 VRB03KT 3SM BR SCT003 SCT250
      TEMPO 2913/2916 1SM BCFG SCT002 SCT250
     FM291700 33005KT P6SM SCT250
     FM301000 00000KT 2SM BR SCT002=

USA.gov is the U.S. government's official web portal to all federal, state and local government web resources and services.